sensor_id;sensor_type;location;lat;lon;timestamp;temperature;humidity
9881;DHT22;4979;51.014;6.678;2023-06-24T00:01:28;20.10;99.90
9881;DHT22;4979;51.014;6.678;2023-06-24T00:03:53;20.20;99.90
9881;DHT22;4979;51.014;6.678;2023-06-24T00:06:20;20.20;99.90
9881;DHT22;4979;51.014;6.678;2023-06-24T00:08:46;20.20;99.90
9881;DHT22;4979;51.014;6.678;2023-06-24T00:11:12;20.20;99.90
9881;DHT22;4979;51.014;6.678;2023-06-24T00:13:41;20.20;99.90
9881;DHT22;4979;51.014;6.678;2023-06-24T00:16:08;20.20;99.90
9881;DHT22;4979;51.014;6.678;2023-06-24T00:20:59;20.10;99.90
9881;DHT22;4979;51.014;6.678;2023-06-24T00:23:27;20.10;99.90
9881;DHT22;4979;51.014;6.678;2023-06-24T00:25:54;20.10;99.90
9881;DHT22;4979;51.014;6.678;2023-06-24T00:28:20;20.10;99.90
9881;DHT22;4979;51.014;6.678;2023-06-24T00:30:49;20.10;99.90
9881;DHT22;4979;51.014;6.678;2023-06-24T00:33:15;20.20;99.90
9881;DHT22;4979;51.014;6.678;2023-06-24T00:35:42;20.10;99.90
9881;DHT22;4979;51.014;6.678;2023-06-24T00:38:08;20.20;99.90
9881;DHT22;4979;51.014;6.678;2023-06-24T00:43:00;20.00;99.90
9881;DHT22;4979;51.014;6.678;2023-06-24T00:45:27;19.90;99.90
9881;DHT22;4979;51.014;6.678;2023-06-24T00:47:53;19.90;99.90
9881;DHT22;4979;51.014;6.678;2023-06-24T00:50:20;19.90;99.90
9881;DHT22;4979;51.014;6.678;2023-06-24T00:52:46;19.80;99.90
9881;DHT22;4979;51.014;6.678;2023-06-24T00:55:15;19.80;99.90
9881;DHT22;4979;51.014;6.678;2023-06-24T00:57:43;19.80;99.90
9881;DHT22;4979;51.014;6.678;2023-06-24T01:00:11;19.70;99.90
9881;DHT22;4979;51.014;6.678;2023-06-24T01:02:42;19.70;99.90
9881;DHT22;4979;51.014;6.678;2023-06-24T01:05:09;19.70;99.90
9881;DHT22;4979;51.014;6.678;2023-06-24T01:07:37;19.70;99.90
9881;DHT22;4979;51.014;6.678;2023-06-24T01:10:03;19.60;99.90
9881;DHT22;4979;51.014;6.678;2023-06-24T01:12:37;19.70;99.90
9881;DHT22;4979;51.014;6.678;2023-06-24T01:15:09;19.60;99.90
9881;DHT22;4979;51.014;6.678;2023-06-24T01:20:36;19.50;99.90
9881;DHT22;4979;51.014;6.678;2023-06-24T01:26:20;19.50;99.90
9881;DHT22;4979;51.014;6.678;2023-06-24T01:32:09;19.40;99.90
9881;DHT22;4979;51.014;6.678;2023-06-24T01:37:16;19.30;99.90
9881;DHT22;4979;51.014;6.678;2023-06-24T01:39:49;19.20;99.90
9881;DHT22;4979;51.014;6.678;2023-06-24T01:42:17;19.00;99.90
9881;DHT22;4979;51.014;6.678;2023-06-24T01:44:47;19.20;99.90
9881;DHT22;4979;51.014;6.678;2023-06-24T01:47:21;19.10;99.90
9881;DHT22;4979;51.014;6.678;2023-06-24T01:49:49;19.00;99.90
9881;DHT22;4979;51.014;6.678;2023-06-24T01:52:18;19.10;99.90
9881;DHT22;4979;51.014;6.678;2023-06-24T01:54:47;19.20;99.90
9881;DHT22;4979;51.014;6.678;2023-06-24T01:57:15;19.10;99.90
9881;DHT22;4979;51.014;6.678;2023-06-24T01:59:43;19.00;99.90
9881;DHT22;4979;51.014;6.678;2023-06-24T02:02:12;19.20;99.90
9881;DHT22;4979;51.014;6.678;2023-06-24T02:04:38;19.20;99.90
9881;DHT22;4979;51.014;6.678;2023-06-24T02:07:05;19.10;99.90
9881;DHT22;4979;51.014;6.678;2023-06-24T02:09:32;19.20;99.90
9881;DHT22;4979;51.014;6.678;2023-06-24T02:12:01;19.40;99.90
9881;DHT22;4979;51.014;6.678;2023-06-24T02:14:27;19.20;99.90
9881;DHT22;4979;51.014;6.678;2023-06-24T02:16:56;19.40;99.90
9881;DHT22;4979;51.014;6.678;2023-06-24T02:19:25;19.20;99.90
9881;DHT22;4979;51.014;6.678;2023-06-24T02:21:51;19.10;99.90
9881;DHT22;4979;51.014;6.678;2023-06-24T02:24:19;18.90;99.90
9881;DHT22;4979;51.014;6.678;2023-06-24T02:26:45;19.10;99.90
9881;DHT22;4979;51.014;6.678;2023-06-24T02:29:12;18.70;99.90
9881;DHT22;4979;51.014;6.678;2023-06-24T02:31:38;18.80;99.90
9881;DHT22;4979;51.014;6.678;2023-06-24T02:36:30;18.90;99.90
9881;DHT22;4979;51.014;6.678;2023-06-24T02:38:55;18.70;99.90
9881;DHT22;4979;51.014;6.678;2023-06-24T02:41:21;18.80;99.90
9881;DHT22;4979;51.014;6.678;2023-06-24T02:43:46;18.80;99.90
9881;DHT22;4979;51.014;6.678;2023-06-24T02:46:13;18.70;99.90
9881;DHT22;4979;51.014;6.678;2023-06-24T02:48:40;18.90;99.90
9881;DHT22;4979;51.014;6.678;2023-06-24T02:51:07;18.80;99.90
9881;DHT22;4979;51.014;6.678;2023-06-24T02:56:00;19.00;99.90
9881;DHT22;4979;51.014;6.678;2023-06-24T03:01:00;18.80;99.90
9881;DHT22;4979;51.014;6.678;2023-06-24T03:03:28;18.70;99.90
9881;DHT22;4979;51.014;6.678;2023-06-24T03:05:54;18.70;99.90
9881;DHT22;4979;51.014;6.678;2023-06-24T03:08:22;18.60;99.90
9881;DHT22;4979;51.014;6.678;2023-06-24T03:10:50;18.30;99.90
9881;DHT22;4979;51.014;6.678;2023-06-24T03:13:16;18.30;99.90
9881;DHT22;4979;51.014;6.678;2023-06-24T03:15:41;18.70;99.90
9881;DHT22;4979;51.014;6.678;2023-06-24T03:18:07;18.70;99.90
9881;DHT22;4979;51.014;6.678;2023-06-24T03:20:32;18.60;99.90
9881;DHT22;4979;51.014;6.678;2023-06-24T03:23:06;18.60;99.90
9881;DHT22;4979;51.014;6.678;2023-06-24T03:25:33;18.50;99.90
9881;DHT22;4979;51.014;6.678;2023-06-24T03:27:58;18.40;99.90
9881;DHT22;4979;51.014;6.678;2023-06-24T03:32:52;18.50;99.90
9881;DHT22;4979;51.014;6.678;2023-06-24T03:35:18;18.60;99.90
9881;DHT22;4979;51.014;6.678;2023-06-24T03:37:44;18.30;99.90
9881;DHT22;4979;51.014;6.678;2023-06-24T03:40:09;18.30;99.90
9881;DHT22;4979;51.014;6.678;2023-06-24T03:42:35;18.50;99.90
9881;DHT22;4979;51.014;6.678;2023-06-24T03:45:03;18.60;99.90
9881;DHT22;4979;51.014;6.678;2023-06-24T03:47:29;18.50;99.90
9881;DHT22;4979;51.014;6.678;2023-06-24T03:49:54;18.60;99.90
9881;DHT22;4979;51.014;6.678;2023-06-24T03:52:20;18.60;99.90
9881;DHT22;4979;51.014;6.678;2023-06-24T03:54:45;18.70;99.90
9881;DHT22;4979;51.014;6.678;2023-06-24T03:57:12;18.70;99.90
9881;DHT22;4979;51.014;6.678;2023-06-24T03:59:38;18.30;99.90
9881;DHT22;4979;51.014;6.678;2023-06-24T04:06:59;18.70;99.90
9881;DHT22;4979;51.014;6.678;2023-06-24T04:09:24;18.70;99.90
9881;DHT22;4979;51.014;6.678;2023-06-24T04:11:50;18.80;99.90
9881;DHT22;4979;51.014;6.678;2023-06-24T04:14:15;18.80;99.90
9881;DHT22;4979;51.014;6.678;2023-06-24T04:16:41;18.90;99.90
9881;DHT22;4979;51.014;6.678;2023-06-24T04:19:06;19.00;99.90
9881;DHT22;4979;51.014;6.678;2023-06-24T04:21:32;19.00;99.90
9881;DHT22;4979;51.014;6.678;2023-06-24T04:23:57;19.00;99.90
9881;DHT22;4979;51.014;6.678;2023-06-24T04:26:23;19.00;99.90
9881;DHT22;4979;51.014;6.678;2023-06-24T04:28:48;19.10;99.90
9881;DHT22;4979;51.014;6.678;2023-06-24T04:31:14;19.10;99.90
9881;DHT22;4979;51.014;6.678;2023-06-24T04:33:40;19.30;99.90
9881;DHT22;4979;51.014;6.678;2023-06-24T04:36:05;19.30;99.90
9881;DHT22;4979;51.014;6.678;2023-06-24T04:38:31;19.60;99.90
9881;DHT22;4979;51.014;6.678;2023-06-24T04:40:56;19.50;99.90
9881;DHT22;4979;51.014;6.678;2023-06-24T04:45:50;19.60;99.90
9881;DHT22;4979;51.014;6.678;2023-06-24T04:48:15;19.90;99.90
9881;DHT22;4979;51.014;6.678;2023-06-24T04:50:41;20.00;99.90
9881;DHT22;4979;51.014;6.678;2023-06-24T04:53:07;20.00;99.90
9881;DHT22;4979;51.014;6.678;2023-06-24T04:57:58;20.10;99.90
9881;DHT22;4979;51.014;6.678;2023-06-24T05:00:24;19.90;99.90
9881;DHT22;4979;51.014;6.678;2023-06-24T05:02:50;20.10;99.90
9881;DHT22;4979;51.014;6.678;2023-06-24T05:05:15;20.20;99.90
9881;DHT22;4979;51.014;6.678;2023-06-24T05:07:41;20.10;99.90
9881;DHT22;4979;51.014;6.678;2023-06-24T05:10:07;20.00;99.90
9881;DHT22;4979;51.014;6.678;2023-06-24T05:14:58;19.80;99.90
9881;DHT22;4979;51.014;6.678;2023-06-24T05:17:24;19.90;99.90
9881;DHT22;4979;51.014;6.678;2023-06-24T05:19:49;19.80;99.90
9881;DHT22;4979;51.014;6.678;2023-06-24T05:22:15;19.90;99.90
9881;DHT22;4979;51.014;6.678;2023-06-24T05:24:41;19.80;99.90
9881;DHT22;4979;51.014;6.678;2023-06-24T05:27:07;20.10;99.90
9881;DHT22;4979;51.014;6.678;2023-06-24T05:29:33;20.00;99.90
9881;DHT22;4979;51.014;6.678;2023-06-24T05:31:59;20.20;99.90
9881;DHT22;4979;51.014;6.678;2023-06-24T05:34:27;20.10;99.90
9881;DHT22;4979;51.014;6.678;2023-06-24T05:36:52;20.10;99.90
9881;DHT22;4979;51.014;6.678;2023-06-24T05:39:18;20.30;99.90
9881;DHT22;4979;51.014;6.678;2023-06-24T05:41:43;20.10;99.90
9881;DHT22;4979;51.014;6.678;2023-06-24T05:44:09;20.40;99.90
9881;DHT22;4979;51.014;6.678;2023-06-24T05:46:38;20.50;99.90
9881;DHT22;4979;51.014;6.678;2023-06-24T05:49:03;20.50;99.90
9881;DHT22;4979;51.014;6.678;2023-06-24T05:51:29;20.40;99.90
9881;DHT22;4979;51.014;6.678;2023-06-24T05:53:55;20.70;99.90
9881;DHT22;4979;51.014;6.678;2023-06-24T05:58:48;20.70;99.90
9881;DHT22;4979;51.014;6.678;2023-06-24T06:03:40;20.90;99.90
9881;DHT22;4979;51.014;6.678;2023-06-24T06:06:06;20.80;99.90
9881;DHT22;4979;51.014;6.678;2023-06-24T06:10:58;21.30;99.90
9881;DHT22;4979;51.014;6.678;2023-06-24T06:13:24;21.40;99.90
9881;DHT22;4979;51.014;6.678;2023-06-24T06:18:15;21.60;99.90
9881;DHT22;4979;51.014;6.678;2023-06-24T06:20:41;21.40;99.90
9881;DHT22;4979;51.014;6.678;2023-06-24T06:23:07;21.60;99.90
9881;DHT22;4979;51.014;6.678;2023-06-24T06:27:58;21.60;99.90
9881;DHT22;4979;51.014;6.678;2023-06-24T06:30:24;21.90;99.90
9881;DHT22;4979;51.014;6.678;2023-06-24T06:32:49;21.70;99.90
9881;DHT22;4979;51.014;6.678;2023-06-24T06:35:15;21.90;99.90
9881;DHT22;4979;51.014;6.678;2023-06-24T06:37:41;21.90;99.90
9881;DHT22;4979;51.014;6.678;2023-06-24T06:40:08;21.90;99.90
9881;DHT22;4979;51.014;6.678;2023-06-24T06:42:34;22.10;99.90
9881;DHT22;4979;51.014;6.678;2023-06-24T06:44:59;22.00;99.90
9881;DHT22;4979;51.014;6.678;2023-06-24T06:47:25;22.20;99.90
9881;DHT22;4979;51.014;6.678;2023-06-24T06:49:51;22.30;99.90
9881;DHT22;4979;51.014;6.678;2023-06-24T06:52:16;21.90;99.90
9881;DHT22;4979;51.014;6.678;2023-06-24T06:54:42;21.70;99.90
9881;DHT22;4979;51.014;6.678;2023-06-24T06:57:07;22.00;99.90
9881;DHT22;4979;51.014;6.678;2023-06-24T06:59:33;22.10;99.90
9881;DHT22;4979;51.014;6.678;2023-06-24T07:04:24;22.40;99.90
9881;DHT22;4979;51.014;6.678;2023-06-24T07:06:50;22.50;99.90
9881;DHT22;4979;51.014;6.678;2023-06-24T07:09:16;22.20;99.90
9881;DHT22;4979;51.014;6.678;2023-06-24T07:11:42;22.30;99.90
9881;DHT22;4979;51.014;6.678;2023-06-24T07:14:08;22.20;99.90
9881;DHT22;4979;51.014;6.678;2023-06-24T07:16:34;22.60;99.90
9881;DHT22;4979;51.014;6.678;2023-06-24T07:19:00;22.40;99.90
9881;DHT22;4979;51.014;6.678;2023-06-24T07:21:25;22.30;99.90
9881;DHT22;4979;51.014;6.678;2023-06-24T07:23:51;22.80;99.90
9881;DHT22;4979;51.014;6.678;2023-06-24T07:26:16;22.90;99.90
9881;DHT22;4979;51.014;6.678;2023-06-24T07:28:42;22.90;99.90
9881;DHT22;4979;51.014;6.678;2023-06-24T07:31:07;22.70;99.90
9881;DHT22;4979;51.014;6.678;2023-06-24T07:33:33;23.00;99.90
9881;DHT22;4979;51.014;6.678;2023-06-24T07:38:25;23.10;99.90
9881;DHT22;4979;51.014;6.678;2023-06-24T07:40:50;23.40;99.90
9881;DHT22;4979;51.014;6.678;2023-06-24T07:45:43;23.40;99.90
9881;DHT22;4979;51.014;6.678;2023-06-24T07:48:09;23.50;99.90
9881;DHT22;4979;51.014;6.678;2023-06-24T07:50:34;23.70;99.90
9881;DHT22;4979;51.014;6.678;2023-06-24T07:55:27;24.00;99.90
9881;DHT22;4979;51.014;6.678;2023-06-24T07:57:53;24.20;99.90
9881;DHT22;4979;51.014;6.678;2023-06-24T08:00:18;24.50;99.90
9881;DHT22;4979;51.014;6.678;2023-06-24T08:02:44;24.40;99.90
9881;DHT22;4979;51.014;6.678;2023-06-24T08:07:37;24.10;99.90
9881;DHT22;4979;51.014;6.678;2023-06-24T08:10:02;24.00;99.90
9881;DHT22;4979;51.014;6.678;2023-06-24T08:12:28;24.00;99.90
9881;DHT22;4979;51.014;6.678;2023-06-24T08:14:53;24.30;99.90
9881;DHT22;4979;51.014;6.678;2023-06-24T08:19:45;24.00;99.90
9881;DHT22;4979;51.014;6.678;2023-06-24T08:22:11;24.30;99.90
9881;DHT22;4979;51.014;6.678;2023-06-24T08:24:36;24.50;99.90
9881;DHT22;4979;51.014;6.678;2023-06-24T08:29:28;24.70;99.90
9881;DHT22;4979;51.014;6.678;2023-06-24T08:31:53;24.50;99.90
9881;DHT22;4979;51.014;6.678;2023-06-24T08:34:19;24.70;99.90
9881;DHT22;4979;51.014;6.678;2023-06-24T08:36:44;24.80;99.90
9881;DHT22;4979;51.014;6.678;2023-06-24T08:39:10;24.80;99.90
9881;DHT22;4979;51.014;6.678;2023-06-24T08:41:36;24.80;99.90
9881;DHT22;4979;51.014;6.678;2023-06-24T08:44:02;25.00;99.90
9881;DHT22;4979;51.014;6.678;2023-06-24T08:46:28;24.90;99.90
9881;DHT22;4979;51.014;6.678;2023-06-24T08:53:58;25.30;99.90
9881;DHT22;4979;51.014;6.678;2023-06-24T08:56:24;25.20;99.90
9881;DHT22;4979;51.014;6.678;2023-06-24T08:58:51;25.40;99.90
9881;DHT22;4979;51.014;6.678;2023-06-24T09:01:17;25.40;99.90
9881;DHT22;4979;51.014;6.678;2023-06-24T09:03:43;25.50;99.90
9881;DHT22;4979;51.014;6.678;2023-06-24T09:08:34;25.80;99.90
9881;DHT22;4979;51.014;6.678;2023-06-24T09:11:00;25.90;99.90
9881;DHT22;4979;51.014;6.678;2023-06-24T09:13:36;25.80;99.90
9881;DHT22;4979;51.014;6.678;2023-06-24T09:16:12;26.00;99.90
9881;DHT22;4979;51.014;6.678;2023-06-24T09:18:39;25.70;99.90
9881;DHT22;4979;51.014;6.678;2023-06-24T09:21:04;25.50;99.90
9881;DHT22;4979;51.014;6.678;2023-06-24T09:23:35;25.80;99.90
9881;DHT22;4979;51.014;6.678;2023-06-24T09:28:27;25.90;99.90
9881;DHT22;4979;51.014;6.678;2023-06-24T09:31:09;25.80;99.90
9881;DHT22;4979;51.014;6.678;2023-06-24T09:36:04;26.00;99.90
9881;DHT22;4979;51.014;6.678;2023-06-24T09:38:35;26.20;99.90
9881;DHT22;4979;51.014;6.678;2023-06-24T09:41:05;26.20;99.90
9881;DHT22;4979;51.014;6.678;2023-06-24T09:43:34;26.10;99.90
9881;DHT22;4979;51.014;6.678;2023-06-24T09:48:27;26.00;99.90
9881;DHT22;4979;51.014;6.678;2023-06-24T09:50:55;26.00;99.90
9881;DHT22;4979;51.014;6.678;2023-06-24T09:53:24;25.90;99.90
9881;DHT22;4979;51.014;6.678;2023-06-24T10:00:46;26.10;99.90
9881;DHT22;4979;51.014;6.678;2023-06-24T10:05:38;26.30;99.90
9881;DHT22;4979;51.014;6.678;2023-06-24T10:08:05;26.10;99.90
9881;DHT22;4979;51.014;6.678;2023-06-24T10:12:57;26.60;99.90
9881;DHT22;4979;51.014;6.678;2023-06-24T10:15:23;26.80;99.90
9881;DHT22;4979;51.014;6.678;2023-06-24T10:17:50;26.70;99.90
9881;DHT22;4979;51.014;6.678;2023-06-24T10:22:51;26.60;99.90
9881;DHT22;4979;51.014;6.678;2023-06-24T10:25:16;26.70;99.90
9881;DHT22;4979;51.014;6.678;2023-06-24T10:27:43;26.80;99.90
9881;DHT22;4979;51.014;6.678;2023-06-24T10:30:17;27.00;99.90
9881;DHT22;4979;51.014;6.678;2023-06-24T10:32:44;26.90;99.90
9881;DHT22;4979;51.014;6.678;2023-06-24T10:35:26;27.10;99.90
9881;DHT22;4979;51.014;6.678;2023-06-24T10:45:55;27.20;99.90
9881;DHT22;4979;51.014;6.678;2023-06-24T10:48:21;27.20;99.90
9881;DHT22;4979;51.014;6.678;2023-06-24T10:50:50;27.00;99.90
9881;DHT22;4979;51.014;6.678;2023-06-24T10:53:16;27.10;99.90
9881;DHT22;4979;51.014;6.678;2023-06-24T10:55:44;27.10;99.90
9881;DHT22;4979;51.014;6.678;2023-06-24T10:58:11;27.30;99.90
9881;DHT22;4979;51.014;6.678;2023-06-24T11:00:42;27.50;99.90
9881;DHT22;4979;51.014;6.678;2023-06-24T11:03:15;27.30;99.90
9881;DHT22;4979;51.014;6.678;2023-06-24T11:05:42;27.70;99.90
9881;DHT22;4979;51.014;6.678;2023-06-24T11:08:08;27.90;99.90
9881;DHT22;4979;51.014;6.678;2023-06-24T11:10:42;27.60;99.90
9881;DHT22;4979;51.014;6.678;2023-06-24T11:13:08;27.60;99.90
9881;DHT22;4979;51.014;6.678;2023-06-24T11:15:34;27.60;99.90
9881;DHT22;4979;51.014;6.678;2023-06-24T11:20:27;27.80;99.90
9881;DHT22;4979;51.014;6.678;2023-06-24T11:25:21;27.70;99.90
9881;DHT22;4979;51.014;6.678;2023-06-24T11:27:49;27.90;99.90
9881;DHT22;4979;51.014;6.678;2023-06-24T11:30:16;27.80;98.80
9881;DHT22;4979;51.014;6.678;2023-06-24T11:32:43;27.90;98.70
9881;DHT22;4979;51.014;6.678;2023-06-24T11:35:10;28.10;99.90
9881;DHT22;4979;51.014;6.678;2023-06-24T11:37:36;28.00;99.70
9881;DHT22;4979;51.014;6.678;2023-06-24T11:42:30;28.00;99.90
9881;DHT22;4979;51.014;6.678;2023-06-24T11:45:03;28.40;99.90
9881;DHT22;4979;51.014;6.678;2023-06-24T11:50:02;28.50;99.90
9881;DHT22;4979;51.014;6.678;2023-06-24T11:52:48;28.50;99.60
9881;DHT22;4979;51.014;6.678;2023-06-24T11:55:24;28.60;99.90
9881;DHT22;4979;51.014;6.678;2023-06-24T11:57:58;28.70;99.40
9881;DHT22;4979;51.014;6.678;2023-06-24T12:02:53;28.30;96.80
9881;DHT22;4979;51.014;6.678;2023-06-24T12:05:46;28.40;97.60
9881;DHT22;4979;51.014;6.678;2023-06-24T12:08:12;28.60;96.60
9881;DHT22;4979;51.014;6.678;2023-06-24T12:10:40;29.00;98.30
9881;DHT22;4979;51.014;6.678;2023-06-24T12:13:06;28.90;98.80
9881;DHT22;4979;51.014;6.678;2023-06-24T12:15:33;28.70;97.90
9881;DHT22;4979;51.014;6.678;2023-06-24T12:17:59;28.70;97.70
9881;DHT22;4979;51.014;6.678;2023-06-24T12:20:25;28.70;95.50
9881;DHT22;4979;51.014;6.678;2023-06-24T12:25:17;28.60;95.80
9881;DHT22;4979;51.014;6.678;2023-06-24T12:27:43;28.70;95.90
9881;DHT22;4979;51.014;6.678;2023-06-24T12:30:10;28.80;95.10
9881;DHT22;4979;51.014;6.678;2023-06-24T12:32:36;28.80;95.20
9881;DHT22;4979;51.014;6.678;2023-06-24T12:35:03;28.80;93.90
9881;DHT22;4979;51.014;6.678;2023-06-24T12:37:32;28.70;93.30
9881;DHT22;4979;51.014;6.678;2023-06-24T12:40:03;29.10;95.70
9881;DHT22;4979;51.014;6.678;2023-06-24T12:44:55;29.00;93.50
9881;DHT22;4979;51.014;6.678;2023-06-24T12:47:21;29.10;93.50
9881;DHT22;4979;51.014;6.678;2023-06-24T12:52:14;29.20;94.30
9881;DHT22;4979;51.014;6.678;2023-06-24T12:54:40;29.10;92.20
9881;DHT22;4979;51.014;6.678;2023-06-24T12:57:06;28.70;91.70
9881;DHT22;4979;51.014;6.678;2023-06-24T12:59:31;28.90;91.60
9881;DHT22;4979;51.014;6.678;2023-06-24T13:06:53;29.10;90.30
9881;DHT22;4979;51.014;6.678;2023-06-24T13:09:19;28.80;90.80
9881;DHT22;4979;51.014;6.678;2023-06-24T13:11:45;28.90;91.80
9881;DHT22;4979;51.014;6.678;2023-06-24T13:14:11;29.20;90.80
9881;DHT22;4979;51.014;6.678;2023-06-24T13:16:37;29.20;86.10
9881;DHT22;4979;51.014;6.678;2023-06-24T13:23:56;29.50;89.60
9881;DHT22;4979;51.014;6.678;2023-06-24T13:26:22;29.40;89.40
9881;DHT22;4979;51.014;6.678;2023-06-24T13:28:49;29.30;88.40
9881;DHT22;4979;51.014;6.678;2023-06-24T13:31:15;29.20;86.60
9881;DHT22;4979;51.014;6.678;2023-06-24T13:33:41;29.40;87.00
9881;DHT22;4979;51.014;6.678;2023-06-24T13:36:08;29.40;86.90
9881;DHT22;4979;51.014;6.678;2023-06-24T13:38:37;29.30;85.60
9881;DHT22;4979;51.014;6.678;2023-06-24T13:41:03;29.40;79.60
9881;DHT22;4979;51.014;6.678;2023-06-24T13:45:55;29.90;80.50
9881;DHT22;4979;51.014;6.678;2023-06-24T13:48:20;29.70;77.00
9881;DHT22;4979;51.014;6.678;2023-06-24T13:55:38;29.60;80.80
9881;DHT22;4979;51.014;6.678;2023-06-24T13:58:03;29.80;84.30
9881;DHT22;4979;51.014;6.678;2023-06-24T14:02:55;29.50;82.60
9881;DHT22;4979;51.014;6.678;2023-06-24T14:05:21;29.60;82.50
9881;DHT22;4979;51.014;6.678;2023-06-24T14:07:46;29.50;74.20
9881;DHT22;4979;51.014;6.678;2023-06-24T14:10:12;29.90;73.00
9881;DHT22;4979;51.014;6.678;2023-06-24T14:12:38;29.70;76.40
9881;DHT22;4979;51.014;6.678;2023-06-24T14:15:04;29.70;76.70
9881;DHT22;4979;51.014;6.678;2023-06-24T14:17:30;29.80;76.20
9881;DHT22;4979;51.014;6.678;2023-06-24T14:19:55;29.60;80.50
9881;DHT22;4979;51.014;6.678;2023-06-24T14:22:21;29.80;80.00
9881;DHT22;4979;51.014;6.678;2023-06-24T14:27:14;29.90;74.70
9881;DHT22;4979;51.014;6.678;2023-06-24T14:29:39;30.00;75.50
9881;DHT22;4979;51.014;6.678;2023-06-24T14:32:05;30.00;75.60
9881;DHT22;4979;51.014;6.678;2023-06-24T14:36:57;30.10;79.10
9881;DHT22;4979;51.014;6.678;2023-06-24T14:41:49;30.00;80.80
9881;DHT22;4979;51.014;6.678;2023-06-24T14:46:40;29.90;78.50
9881;DHT22;4979;51.014;6.678;2023-06-24T14:53:58;29.70;77.70
9881;DHT22;4979;51.014;6.678;2023-06-24T14:56:24;30.10;74.90
9881;DHT22;4979;51.014;6.678;2023-06-24T14:58:50;29.90;75.50
9881;DHT22;4979;51.014;6.678;2023-06-24T15:01:16;30.00;77.00
9881;DHT22;4979;51.014;6.678;2023-06-24T15:03:41;30.10;77.60
9881;DHT22;4979;51.014;6.678;2023-06-24T15:06:07;30.00;73.30
9881;DHT22;4979;51.014;6.678;2023-06-24T15:08:33;29.90;71.30
9881;DHT22;4979;51.014;6.678;2023-06-24T15:10:58;29.90;72.00
9881;DHT22;4979;51.014;6.678;2023-06-24T15:13:24;30.10;74.10
9881;DHT22;4979;51.014;6.678;2023-06-24T15:15:50;30.30;75.90
9881;DHT22;4979;51.014;6.678;2023-06-24T15:18:17;30.10;74.60
9881;DHT22;4979;51.014;6.678;2023-06-24T15:20:43;30.20;72.70
9881;DHT22;4979;51.014;6.678;2023-06-24T15:23:08;30.30;74.30
9881;DHT22;4979;51.014;6.678;2023-06-24T15:25:34;30.10;71.80
9881;DHT22;4979;51.014;6.678;2023-06-24T15:28:00;30.20;68.90
9881;DHT22;4979;51.014;6.678;2023-06-24T15:30:26;30.00;70.90
9881;DHT22;4979;51.014;6.678;2023-06-24T15:32:52;30.00;76.20
9881;DHT22;4979;51.014;6.678;2023-06-24T15:35:18;30.00;69.90
9881;DHT22;4979;51.014;6.678;2023-06-24T15:37:43;30.10;74.40
9881;DHT22;4979;51.014;6.678;2023-06-24T15:40:09;30.00;66.70
9881;DHT22;4979;51.014;6.678;2023-06-24T15:45:03;30.20;72.40
9881;DHT22;4979;51.014;6.678;2023-06-24T15:49:55;30.10;68.70
9881;DHT22;4979;51.014;6.678;2023-06-24T15:52:20;30.20;70.20
9881;DHT22;4979;51.014;6.678;2023-06-24T15:57:12;29.90;72.70
9881;DHT22;4979;51.014;6.678;2023-06-24T15:59:37;29.80;73.00
9881;DHT22;4979;51.014;6.678;2023-06-24T16:02:03;30.00;74.50
9881;DHT22;4979;51.014;6.678;2023-06-24T16:06:54;29.70;71.50
9881;DHT22;4979;51.014;6.678;2023-06-24T16:09:20;30.10;72.10
9881;DHT22;4979;51.014;6.678;2023-06-24T16:11:46;30.00;73.10
9881;DHT22;4979;51.014;6.678;2023-06-24T16:14:11;29.90;73.50
9881;DHT22;4979;51.014;6.678;2023-06-24T16:16:37;29.90;76.20
9881;DHT22;4979;51.014;6.678;2023-06-24T16:19:02;29.90;77.10
9881;DHT22;4979;51.014;6.678;2023-06-24T16:23:54;29.90;77.70
9881;DHT22;4979;51.014;6.678;2023-06-24T16:26:20;29.80;76.60
9881;DHT22;4979;51.014;6.678;2023-06-24T16:28:45;29.80;76.40
9881;DHT22;4979;51.014;6.678;2023-06-24T16:31:11;29.90;77.20
9881;DHT22;4979;51.014;6.678;2023-06-24T16:33:37;29.90;68.70
9881;DHT22;4979;51.014;6.678;2023-06-24T16:36:02;29.80;67.10
9881;DHT22;4979;51.014;6.678;2023-06-24T16:40:54;30.10;77.70
9881;DHT22;4979;51.014;6.678;2023-06-24T16:43:19;30.00;75.60
9881;DHT22;4979;51.014;6.678;2023-06-24T16:48:11;30.10;70.90
9881;DHT22;4979;51.014;6.678;2023-06-24T16:50:36;30.40;71.50
9881;DHT22;4979;51.014;6.678;2023-06-24T16:53:02;30.20;69.00
9881;DHT22;4979;51.014;6.678;2023-06-24T16:57:53;30.20;72.50
9881;DHT22;4979;51.014;6.678;2023-06-24T17:00:19;30.40;82.10
9881;DHT22;4979;51.014;6.678;2023-06-24T17:02:45;30.40;76.50
9881;DHT22;4979;51.014;6.678;2023-06-24T17:05:10;30.30;68.20
9881;DHT22;4979;51.014;6.678;2023-06-24T17:07:36;30.30;67.50
9881;DHT22;4979;51.014;6.678;2023-06-24T17:10:01;30.50;76.70
9881;DHT22;4979;51.014;6.678;2023-06-24T17:12:27;30.60;73.90
9881;DHT22;4979;51.014;6.678;2023-06-24T17:14:53;30.60;80.10
9881;DHT22;4979;51.014;6.678;2023-06-24T17:17:19;30.70;77.80
9881;DHT22;4979;51.014;6.678;2023-06-24T17:19:44;30.60;73.70
9881;DHT22;4979;51.014;6.678;2023-06-24T17:22:10;30.50;74.40
9881;DHT22;4979;51.014;6.678;2023-06-24T17:24:35;30.50;82.20
9881;DHT22;4979;51.014;6.678;2023-06-24T17:27:01;30.60;84.60
9881;DHT22;4979;51.014;6.678;2023-06-24T17:29:26;30.30;72.70
9881;DHT22;4979;51.014;6.678;2023-06-24T17:31:52;30.10;70.90
9881;DHT22;4979;51.014;6.678;2023-06-24T17:34:17;30.10;73.00
9881;DHT22;4979;51.014;6.678;2023-06-24T17:36:43;30.20;71.70
9881;DHT22;4979;51.014;6.678;2023-06-24T17:39:09;30.20;72.90
9881;DHT22;4979;51.014;6.678;2023-06-24T17:41:34;30.20;72.70
9881;DHT22;4979;51.014;6.678;2023-06-24T17:44:00;30.30;73.00
9881;DHT22;4979;51.014;6.678;2023-06-24T17:48:51;30.20;73.00
9881;DHT22;4979;51.014;6.678;2023-06-24T17:51:17;30.10;68.20
9881;DHT22;4979;51.014;6.678;2023-06-24T17:58:34;30.60;76.10
9881;DHT22;4979;51.014;6.678;2023-06-24T18:01:00;30.60;78.20
9881;DHT22;4979;51.014;6.678;2023-06-24T18:03:25;30.80;77.70
9881;DHT22;4979;51.014;6.678;2023-06-24T18:08:18;31.00;91.00
9881;DHT22;4979;51.014;6.678;2023-06-24T18:10:44;31.00;83.50
9881;DHT22;4979;51.014;6.678;2023-06-24T18:13:10;30.80;78.60
9881;DHT22;4979;51.014;6.678;2023-06-24T18:15:35;30.90;88.50
9881;DHT22;4979;51.014;6.678;2023-06-24T18:20:27;31.10;80.60
9881;DHT22;4979;51.014;6.678;2023-06-24T18:25:18;31.00;84.30
9881;DHT22;4979;51.014;6.678;2023-06-24T18:27:44;30.90;80.80
9881;DHT22;4979;51.014;6.678;2023-06-24T18:30:10;30.90;81.00
9881;DHT22;4979;51.014;6.678;2023-06-24T18:35:02;30.90;83.80
9881;DHT22;4979;51.014;6.678;2023-06-24T18:39:56;30.80;83.60
9881;DHT22;4979;51.014;6.678;2023-06-24T18:42:21;31.10;86.00
9881;DHT22;4979;51.014;6.678;2023-06-24T18:47:13;31.30;85.50
9881;DHT22;4979;51.014;6.678;2023-06-24T18:49:39;31.20;81.80
9881;DHT22;4979;51.014;6.678;2023-06-24T18:52:06;31.30;82.70
9881;DHT22;4979;51.014;6.678;2023-06-24T18:56:58;30.40;84.40
9881;DHT22;4979;51.014;6.678;2023-06-24T18:59:24;30.00;86.00
9881;DHT22;4979;51.014;6.678;2023-06-24T19:04:15;29.00;88.30
9881;DHT22;4979;51.014;6.678;2023-06-24T19:06:41;29.10;90.00
9881;DHT22;4979;51.014;6.678;2023-06-24T19:09:08;28.80;90.00
9881;DHT22;4979;51.014;6.678;2023-06-24T19:11:35;28.60;90.30
9881;DHT22;4979;51.014;6.678;2023-06-24T19:16:27;28.30;92.70
9881;DHT22;4979;51.014;6.678;2023-06-24T19:18:52;27.90;93.10
9881;DHT22;4979;51.014;6.678;2023-06-24T19:21:18;28.00;93.60
9881;DHT22;4979;51.014;6.678;2023-06-24T19:26:09;27.50;96.90